Time;durP1;ratioP1;P1;durP2;ratioP2;P2;SDS_P1;SDS_P2;PMS_P1;PMS_P2;Temp;Humidity;BMP_temperature;BMP_pressure;BME280_temperature;BME280_humidity;BME280_pressure;Samples;Min_cycle;Max_cycle;Signal;HPM_P1;HPM_P2
2021/08/05 00:00:43;;;;;;;0.00;0.00;;;23.40;66.70;;;;;;5017453;28;20048;-89
2021/08/05 00:03:09;;;;;;;0.00;0.00;;;23.40;66.40;;;;;;5016740;28;20077;-90
2021/08/05 00:05:35;;;;;;;0.00;0.00;;;23.40;65.90;;;;;;5016725;28;20065;-89
2021/08/05 00:08:00;;;;;;;0.00;0.00;;;23.50;65.60;;;;;;5033037;28;20025;-89
2021/08/05 00:10:26;;;;;;;0.00;0.00;;;23.40;65.50;;;;;;5017078;28;20045;-89
2021/08/05 00:12:52;;;;;;;0.00;0.00;;;23.50;65.10;;;;;;5019775;28;20391;-88
2021/08/05 00:15:18;;;;;;;0.00;0.00;;;23.50;65.00;;;;;;5022026;28;20128;-91
2021/08/05 00:17:44;;;;;;;0.10;0.10;;;23.50;64.90;;;;;;5020210;28;20032;-90
2021/08/05 00:20:10;;;;;;;0.03;0.03;;;23.40;64.60;;;;;;5037554;28;20036;-89
2021/08/05 00:22:36;;;;;;;0.00;0.00;;;23.40;64.70;;;;;;5020290;28;20033;-90
2021/08/05 00:25:02;;;;;;;0.00;0.00;;;23.40;64.40;;;;;;5036640;28;20022;-89
2021/08/05 00:27:28;;;;;;;0.00;0.00;;;23.40;64.30;;;;;;5020959;28;20465;-90
2021/08/05 00:29:54;;;;;;;0.00;0.00;;;23.40;64.30;;;;;;5035395;28;20121;-90
2021/08/05 00:32:20;;;;;;;0.00;0.00;;;23.40;64.50;;;;;;5018893;28;20108;-90
2021/08/05 00:34:45;;;;;;;0.00;0.00;;;23.30;64.50;;;;;;5020209;28;20107;-90
2021/08/05 00:37:11;;;;;;;0.00;0.00;;;23.30;64.40;;;;;;5018844;28;20026;-90
2021/08/05 00:39:37;;;;;;;0.10;0.10;;;23.30;64.30;;;;;;5018800;28;20037;-89
2021/08/05 00:42:03;;;;;;;0.00;0.00;;;23.30;64.40;;;;;;5036584;28;20055;-90
2021/08/05 00:44:28;;;;;;;0.00;0.00;;;23.30;64.30;;;;;;5019642;28;20033;-90
2021/08/05 00:46:54;;;;;;;0.00;0.00;;;23.30;64.20;;;;;;5019149;28;20463;-89
2021/08/05 00:49:20;;;;;;;0.00;0.00;;;23.20;64.10;;;;;;5018670;28;20041;-89
2021/08/05 00:51:46;;;;;;;0.00;0.00;;;23.30;64.20;;;;;;5037858;28;20033;-90
2021/08/05 00:54:11;;;;;;;0.00;0.00;;;23.30;64.10;;;;;;5019268;28;20036;-89
2021/08/05 00:56:37;;;;;;;0.00;0.00;;;23.30;63.90;;;;;;5019949;28;20025;-91
2021/08/05 00:59:03;;;;;;;0.00;0.00;;;23.30;63.60;;;;;;5018230;28;20036;-89
2021/08/05 01:01:39;;;;;;;0.00;0.00;;;23.30;63.60;;;;;;5018475;28;20021;-89
2021/08/05 01:04:08;;;;;;;0.00;0.00;;;23.30;63.60;;;;;;5017962;28;20068;-89
2021/08/05 01:06:47;;;;;;;0.00;0.00;;;23.20;63.70;;;;;;5036256;28;20018;-90
2021/08/05 01:09:32;;;;;;;0.00;0.00;;;23.20;63.70;;;;;;5018325;28;20034;-91
2021/08/05 01:12:09;;;;;;;;;;;23.10;63.60;;;;;;5018295;28;20112;-90
2021/08/05 01:14:41;;;;;;;0.00;0.00;;;23.00;63.80;;;;;;5019422;28;19920;-89
2021/08/05 01:17:10;;;;;;;0.00;0.00;;;23.00;64.10;;;;;;5036658;28;20100;-89
2021/08/05 01:19:42;;;;;;;0.00;0.00;;;22.90;64.50;;;;;;5017776;28;20034;-89
2021/08/05 01:22:26;;;;;;;0.03;0.03;;;22.90;65.20;;;;;;5034901;28;20513;-91
2021/08/05 01:25:07;;;;;;;0.00;0.00;;;22.80;65.90;;;;;;5017429;28;20390;-90
2021/08/05 01:27:33;;;;;;;0.00;0.00;;;22.70;66.50;;;;;;5017661;28;20025;-90
2021/08/05 01:30:00;;;;;;;0.00;0.00;;;22.50;66.80;;;;;;5017528;28;20029;-90
2021/08/05 01:32:26;;;;;;;0.00;0.00;;;22.40;67.40;;;;;;5017434;28;20390;-90
2021/08/05 01:34:54;;;;;;;0.08;0.08;;;22.30;67.70;;;;;;5017413;28;20060;-91
2021/08/05 01:37:22;;;;;;;0.00;0.00;;;22.30;68.20;;;;;;5017765;28;20025;-90
2021/08/05 01:39:48;;;;;;;0.00;0.00;;;22.10;68.50;;;;;;5017740;28;20026;-90
2021/08/05 01:42:18;;;;;;;0.00;0.00;;;22.10;68.90;;;;;;5018033;28;20068;-91
2021/08/05 01:44:45;;;;;;;0.00;0.00;;;22.00;69.10;;;;;;5019034;28;20037;-92
2021/08/05 01:47:13;;;;;;;0.00;0.00;;;22.00;69.40;;;;;;5020954;28;20032;-90
2021/08/05 01:49:40;;;;;;;0.10;0.10;;;21.90;69.60;;;;;;5042596;28;20038;-90
2021/08/05 01:52:07;;;;;;;0.00;0.00;;;21.90;69.90;;;;;;5019989;28;20060;-89
2021/08/05 01:54:34;;;;;;;0.00;0.00;;;21.90;70.00;;;;;;5017599;28;20512;-90
2021/08/05 01:56:59;;;;;;;0.10;0.10;;;21.90;70.30;;;;;;5017854;28;20021;-90
2021/08/05 01:59:25;;;;;;;0.00;0.00;;;21.90;70.60;;;;;;5017570;28;20559;-91
2021/08/05 02:01:51;;;;;;;0.00;0.00;;;21.80;70.90;;;;;;5018048;28;20026;-90
2021/08/05 02:04:54;;;;;;;0.00;0.00;;;21.80;71.30;;;;;;5033667;28;20026;-90
2021/08/05 02:07:27;;;;;;;0.00;0.00;;;21.90;72.20;;;;;;5016996;28;20033;-90
2021/08/05 02:10:13;;;;;;;0.00;0.00;;;21.90;72.00;;;;;;5016895;28;20479;-90
2021/08/05 02:12:48;;;;;;;0.00;0.00;;;21.90;72.60;;;;;;5016736;28;20033;-90
2021/08/05 02:15:16;;;;;;;0.00;0.00;;;22.00;72.90;;;;;;5034903;28;20030;-90
2021/08/05 02:17:43;;;;;;;0.10;0.10;;;22.00;73.30;;;;;;5017089;28;20112;-90
2021/08/05 02:20:11;;;;;;;0.00;0.00;;;22.00;73.70;;;;;;5017774;28;20038;-90
2021/08/05 02:22:43;;;;;;;0.00;0.00;;;22.00;74.00;;;;;;5020064;28;20576;-90
2021/08/05 02:25:10;;;;;;;0.00;0.00;;;22.10;74.30;;;;;;5020446;28;20025;-89
2021/08/05 02:27:38;;;;;;;0.00;0.00;;;22.10;74.60;;;;;;5016705;28;20021;-90
2021/08/05 02:30:05;;;;;;;0.00;0.00;;;22.20;74.90;;;;;;5016458;28;20041;-90
2021/08/05 02:32:31;;;;;;;0.00;0.00;;;22.20;75.20;;;;;;5016297;28;20087;-90
2021/08/05 02:35:01;;;;;;;0.00;0.00;;;22.20;75.90;;;;;;5015680;28;20044;-90
2021/08/05 02:37:27;;;;;;;0.00;0.00;;;22.30;75.50;;;;;;5034148;28;20029;-90
2021/08/05 02:39:53;;;;;;;0.00;0.00;;;22.30;75.60;;;;;;5016311;28;20528;-90
2021/08/05 02:42:20;;;;;;;0.00;0.00;;;22.30;75.80;;;;;;5016165;28;20045;-90
2021/08/05 02:44:46;;;;;;;0.00;0.00;;;22.40;75.90;;;;;;5016511;28;20030;-90
2021/08/05 02:47:12;;;;;;;0.00;0.00;;;22.40;76.00;;;;;;5016910;28;20502;-90
2021/08/05 02:49:39;;;;;;;0.00;0.00;;;22.40;75.80;;;;;;5017154;28;20128;-90
2021/08/05 02:52:05;;;;;;;0.00;0.00;;;22.50;75.90;;;;;;5036279;28;20037;-90
2021/08/05 02:54:32;;;;;;;0.00;0.00;;;22.40;76.00;;;;;;5017021;28;20049;-90
2021/08/05 02:56:58;;;;;;;0.10;0.10;;;22.40;75.90;;;;;;5016547;28;20032;-91
2021/08/05 02:59:28;;;;;;;0.00;0.00;;;22.40;75.70;;;;;;5016799;28;20038;-90
2021/08/05 03:01:55;;;;;;;0.00;0.00;;;22.30;75.40;;;;;;5017134;28;20034;-91
2021/08/05 03:04:20;;;;;;;0.00;0.00;;;22.20;75.60;;;;;;5022917;28;20029;-91
2021/08/05 03:06:46;;;;;;;0.00;0.00;;;22.10;75.10;;;;;;5020318;28;20363;-91
2021/08/05 03:09:13;;;;;;;0.00;0.00;;;21.90;75.00;;;;;;5016011;28;20503;-91
2021/08/05 03:11:39;;;;;;;0.00;0.00;;;21.80;75.10;;;;;;5018774;28;20056;-92
2021/08/05 03:14:05;;;;;;;0.10;0.10;;;21.80;75.30;;;;;;5017302;28;20025;-90
2021/08/05 03:16:31;;;;;;;0.00;0.00;;;21.60;75.30;;;;;;5018815;28;20467;-90
2021/08/05 03:18:56;;;;;;;0.00;0.00;;;21.50;75.50;;;;;;5015550;28;20026;-92
2021/08/05 03:21:22;;;;;;;0.10;0.10;;;21.50;75.70;;;;;;5016292;28;20116;-91
2021/08/05 03:23:48;;;;;;;0.00;0.00;;;21.40;75.80;;;;;;5020015;28;20116;-92
2021/08/05 03:26:26;;;;;;;0.00;0.00;;;21.40;75.80;;;;;;5026576;28;20065;-92
2021/08/05 03:28:52;;;;;;;0.00;0.00;;;21.30;75.70;;;;;;5017557;28;20542;-89
2021/08/05 03:31:18;;;;;;;0.00;0.00;;;21.30;76.00;;;;;;5018473;28;20061;-91
2021/08/05 03:33:43;;;;;;;0.10;0.10;;;21.20;76.00;;;;;;5017700;28;20021;-89
2021/08/05 03:36:09;;;;;;;0.00;0.00;;;21.30;76.10;;;;;;5018081;28;20386;-90
2021/08/05 03:38:35;;;;;;;0.00;0.00;;;21.20;76.00;;;;;;5015888;28;20481;-90
2021/08/05 03:41:02;;;;;;;0.00;0.00;;;21.20;76.10;;;;;;5017087;28;20052;-92
2021/08/05 03:43:28;;;;;;;0.00;0.00;;;21.20;76.20;;;;;;5015984;28;20383;-91
2021/08/05 03:45:54;;;;;;;0.00;0.00;;;21.20;76.30;;;;;;5017089;28;20041;-91
2021/08/05 03:48:20;;;;;;;0.10;0.10;;;21.20;76.50;;;;;;5026808;28;20068;-91
2021/08/05 03:50:46;;;;;;;0.03;0.03;;;21.20;76.60;;;;;;5027558;28;20486;-92
2021/08/05 03:53:12;;;;;;;0.00;0.00;;;21.10;76.80;;;;;;5022725;28;20021;-93
2021/08/05 03:55:39;;;;;;;0.00;0.00;;;21.10;77.00;;;;;;5022513;28;20041;-93
2021/08/05 03:58:07;;;;;;;0.00;0.00;;;21.00;77.80;;;;;;5021848;28;20429;-92
2021/08/05 04:00:33;;;;;;;0.10;0.10;;;21.00;77.70;;;;;;5026307;28;20037;-90
2021/08/05 04:02:59;;;;;;;0.00;0.00;;;21.00;78.20;;;;;;5023784;28;20041;-92
2021/08/05 04:05:29;;;;;;;0.00;0.00;;;21.00;78.70;;;;;;5026498;28;20425;-90
2021/08/05 04:07:55;;;;;;;0.00;0.00;;;21.00;79.30;;;;;;5020533;28;20474;-90
2021/08/05 04:10:21;;;;;;;0.00;0.00;;;20.90;79.70;;;;;;5025151;28;20033;-90
2021/08/05 04:12:47;;;;;;;0.08;0.00;;;20.90;80.00;;;;;;5040779;28;20018;-91
2021/08/05 04:15:13;;;;;;;0.00;0.00;;;21.00;80.30;;;;;;5041016;28;20033;-92
2021/08/05 04:17:39;;;;;;;0.10;0.10;;;21.00;80.10;;;;;;5023370;28;20443;-92
2021/08/05 04:20:06;;;;;;;0.10;0.10;;;21.10;80.20;;;;;;5023266;28;20056;-92
2021/08/05 04:22:32;;;;;;;0.08;0.08;;;21.10;80.10;;;;;;5024242;28;20103;-93
2021/08/05 04:24:58;;;;;;;0.00;0.00;;;21.20;80.10;;;;;;5031851;28;20464;-92
2021/08/05 04:27:24;;;;;;;0.00;0.00;;;21.30;80.20;;;;;;5028281;28;20030;-92
2021/08/05 04:29:50;;;;;;;0.00;0.00;;;21.30;80.30;;;;;;5023800;28;20044;-91
2021/08/05 04:32:16;;;;;;;0.03;0.03;;;21.30;80.40;;;;;;5039223;28;20021;-92
2021/08/05 04:34:42;;;;;;;0.00;0.00;;;21.40;80.60;;;;;;5038583;28;20128;-91
2021/08/05 04:37:08;;;;;;;0.10;0.10;;;21.30;80.60;;;;;;5039348;28;20045;-90
2021/08/05 04:39:34;;;;;;;0.10;0.10;;;21.40;80.50;;;;;;5039734;28;20463;-92
2021/08/05 04:42:00;;;;;;;0.10;0.10;;;21.50;80.20;;;;;;5041772;28;20023;-91
2021/08/05 04:44:25;;;;;;;0.00;0.00;;;21.60;80.00;;;;;;5029675;28;20029;-91
2021/08/05 04:46:51;;;;;;;0.10;0.10;;;21.70;80.50;;;;;;5040401;28;20022;-89
2021/08/05 04:49:17;;;;;;;0.00;0.00;;;21.80;79.50;;;;;;5027955;28;20048;-93
2021/08/05 04:51:54;;;;;;;0.10;0.10;;;21.90;79.00;;;;;;5025534;28;20037;-92
2021/08/05 04:54:21;;;;;;;0.00;0.00;;;22.00;78.70;;;;;;5038148;28;20065;-92
2021/08/05 04:56:52;;;;;;;0.00;0.00;;;22.20;78.80;;;;;;5021401;28;20364;-91
2021/08/05 04:59:20;;;;;;;0.00;0.00;;;22.40;78.40;;;;;;5026299;28;20037;-93
2021/08/05 05:01:53;;;;;;;0.00;0.00;;;22.70;77.70;;;;;;5024550;28;20051;-92
2021/08/05 05:04:19;;;;;;;0.00;0.00;;;22.90;76.20;;;;;;5023344;28;20124;-92
2021/08/05 05:06:51;;;;;;;0.00;0.00;;;23.10;76.10;;;;;;5037343;28;20033;-91
2021/08/05 05:09:16;;;;;;;0.00;0.00;;;23.40;75.80;;;;;;5038899;28;20509;-90
2021/08/05 05:11:56;;;;;;;0.00;0.00;;;23.60;74.90;;;;;;5029280;28;20025;-93
2021/08/05 05:14:22;;;;;;;0.00;0.00;;;23.90;73.20;;;;;;5028642;28;20033;-90
2021/08/05 05:17:13;;;;;;;0.00;0.00;;;23.90;72.70;;;;;;5036995;28;20013;-92
2021/08/05 05:19:39;;;;;;;0.00;0.00;;;23.70;72.20;;;;;;5036084;28;20029;-90
2021/08/05 05:22:05;;;;;;;0.00;0.00;;;23.60;72.80;;;;;;5037762;28;20029;-90
2021/08/05 05:24:39;;;;;;;0.00;0.00;;;23.70;74.00;;;;;;5037960;28;20421;-93
2021/08/05 05:27:05;;;;;;;0.05;0.05;;;24.10;73.10;;;;;;5019480;28;20021;-89
2021/08/05 05:29:38;;;;;;;0.00;0.00;;;24.50;72.90;;;;;;5040740;28;20076;-92
2021/08/05 05:32:05;;;;;;;0.00;0.00;;;25.10;72.00;;;;;;5022403;28;20117;-91
2021/08/05 05:35:00;;;;;;;0.00;0.00;;;25.50;70.80;;;;;;5035189;23;20034;-90
2021/08/05 05:37:35;;;;;;;0.00;0.00;;;25.90;70.10;;;;;;4960980;28;20042;-90
2021/08/05 05:40:01;;;;;;;0.00;0.00;;;26.20;67.80;;;;;;4986094;28;20039;-91
2021/08/05 05:42:35;;;;;;;0.00;0.00;;;26.30;67.00;;;;;;4981153;28;20054;-88
2021/08/05 05:45:01;;;;;;;0.00;0.00;;;26.40;66.40;;;;;;4978922;28;20042;-90
2021/08/05 05:47:45;;;;;;;0.00;0.00;;;26.60;66.10;;;;;;4975708;28;20031;-89
2021/08/05 05:50:24;;;;;;;0.00;0.00;;;26.80;65.60;;;;;;4959679;28;20123;-88
2021/08/05 05:53:05;;;;;;;0.00;0.00;;;26.80;64.90;;;;;;4977378;28;20118;-90
2021/08/05 05:55:46;;;;;;;0.00;0.00;;;26.60;64.40;;;;;;4976721;28;20035;-92
2021/08/05 05:59:22;;;;;;;;;;;;;;;;;;;;;
2021/08/05 06:01:50;;;;;;;0.00;0.00;;;26.00;66.00;;;;;;4900510;29;20139;-89
2021/08/05 06:04:16;;;;;;;0.00;0.00;;;25.90;66.20;;;;;;4942459;29;20035;-88
2021/08/05 06:06:51;;;;;;;0.00;0.00;;;25.90;66.30;;;;;;4939940;29;20338;-90
2021/08/05 06:09:47;;;;;;;0.00;0.00;;;25.80;66.50;;;;;;4972530;28;20034;-89
2021/08/05 06:15:17;;;;;;;0.00;0.00;;;25.90;67.20;;;;;;4990563;28;20549;-90
2021/08/05 06:17:55;;;;;;;0.00;0.00;;;26.10;67.10;;;;;;4997255;28;20044;-90
2021/08/05 06:20:27;;;;;;;0.08;0.08;;;26.20;67.00;;;;;;4979810;28;20030;-91
2021/08/05 06:27:43;;;;;;;0.00;0.00;;;26.90;65.00;;;;;;5042908;28;20049;-89
2021/08/05 06:30:10;;;;;;;0.00;0.00;;;27.20;64.90;;;;;;5039490;28;20128;-89
2021/08/05 06:32:39;;;;;;;0.00;0.00;;;27.50;64.50;;;;;;5037717;28;20033;-91
2021/08/05 06:35:08;;;;;;;0.00;0.00;;;27.70;63.70;;;;;;5039397;28;20029;-90
2021/08/05 06:37:35;;;;;;;0.00;0.00;;;27.80;63.50;;;;;;5039023;28;20040;-91
2021/08/05 06:40:04;;;;;;;0.00;0.00;;;27.80;62.70;;;;;;5039026;28;20119;-90
2021/08/05 06:42:40;;;;;;;0.00;0.00;;;27.90;63.00;;;;;;5039389;28;20379;-88
2021/08/05 06:45:45;;;;;;;0.00;0.00;;;28.00;62.70;;;;;;5042317;28;20033;-90
2021/08/05 06:48:30;;;;;;;0.03;0.00;;;28.20;61.80;;;;;;5003328;28;20095;-89
2021/08/05 06:51:00;;;;;;;0.00;0.00;;;28.30;62.50;;;;;;5040492;28;20041;-89
2021/08/05 06:53:26;;;;;;;0.00;0.00;;;28.70;62.40;;;;;;5036150;22;20084;-88
2021/08/05 06:55:57;;;;;;;0.00;0.00;;;29.30;61.50;;;;;;5017674;28;20030;-91
2021/08/05 06:58:23;;;;;;;0.00;0.00;;;30.00;60.50;;;;;;5018077;28;20045;-89
2021/08/05 07:00:52;;;;;;;0.00;0.00;;;30.60;58.90;;;;;;5032068;28;20037;-90
2021/08/05 07:03:17;;;;;;;0.00;0.00;;;30.90;56.80;;;;;;5022432;28;20053;-88
2021/08/05 07:05:49;;;;;;;0.00;0.00;;;31.10;57.30;;;;;;5018488;28;20052;-91
2021/08/05 07:08:17;;;;;;;0.00;0.00;;;31.40;56.70;;;;;;5017362;28;20041;-89
2021/08/05 07:10:55;;;;;;;0.00;0.00;;;31.50;55.10;;;;;;5017829;28;20067;-90
2021/08/05 07:13:28;;;;;;;0.00;0.00;;;31.40;56.10;;;;;;5017727;28;20124;-90
2021/08/05 07:15:54;;;;;;;0.00;0.00;;;31.80;56.80;;;;;;5017795;28;20103;-90
2021/08/05 07:18:36;;;;;;;0.00;0.00;;;32.50;56.10;;;;;;5017084;28;20033;-90
2021/08/05 07:21:05;;;;;;;0.00;0.00;;;33.20;54.50;;;;;;5018830;28;20037;-90
2021/08/05 07:23:33;;;;;;;0.00;0.00;;;33.70;53.10;;;;;;5037835;28;20052;-92
2021/08/05 07:26:21;;;;;;;0.00;0.00;;;33.90;52.10;;;;;;5021178;28;20060;-91
2021/08/05 07:28:49;;;;;;;0.00;0.00;;;34.30;52.00;;;;;;5021836;28;20030;-91
2021/08/05 07:31:24;;;;;;;0.00;0.00;;;34.30;51.30;;;;;;5006716;28;20042;-90
2021/08/05 07:34:06;;;;;;;;;;;;;;;;;;;;;
2021/08/05 07:36:32;;;;;;;0.00;0.00;;;33.70;49.60;;;;;;5063885;23;20072;-92
2021/08/05 07:38:58;;;;;;;0.00;0.00;;;33.70;50.40;;;;;;5047501;28;20029;-91
2021/08/05 07:41:24;;;;;;;0.00;0.00;;;33.80;50.10;;;;;;5051980;28;20045;-91
2021/08/05 07:43:50;;;;;;;0.00;0.00;;;33.80;49.70;;;;;;5051851;28;20060;-92
2021/08/05 07:46:15;;;;;;;0.00;0.00;;;33.50;49.80;;;;;;5048785;28;20045;-89
2021/08/05 07:48:42;;;;;;;0.00;0.00;;;33.40;50.10;;;;;;5045471;28;20040;-92
2021/08/05 07:51:08;;;;;;;0.00;0.00;;;33.40;50.10;;;;;;5043497;28;20037;-90
2021/08/05 07:53:36;;;;;;;0.00;0.00;;;33.80;50.90;;;;;;5047141;28;20035;-89
2021/08/05 07:56:02;;;;;;;0.00;0.00;;;34.40;50.10;;;;;;5044117;28;20037;-91
2021/08/05 07:58:28;;;;;;;0.00;0.00;;;35.00;48.40;;;;;;5042805;28;20030;-89
2021/08/05 08:00:54;;;;;;;0.00;0.00;;;35.10;47.90;;;;;;5041670;28;20043;-89
2021/08/05 08:03:19;;;;;;;0.00;0.00;;;35.00;47.70;;;;;;5025793;28;20387;-90
2021/08/05 08:05:45;;;;;;;0.00;0.00;;;34.90;47.90;;;;;;5042902;28;20044;-91
2021/08/05 08:08:14;;;;;;;0.00;0.00;;;34.90;48.10;;;;;;5048110;28;20037;-89
2021/08/05 08:10:39;;;;;;;0.00;0.00;;;35.10;47.50;;;;;;5046225;28;20508;-91
2021/08/05 08:13:05;;;;;;;0.00;0.00;;;35.10;47.20;;;;;;5059668;28;20111;-91
2021/08/05 08:15:32;;;;;;;0.10;0.10;;;35.10;47.30;;;;;;5057001;28;20021;-89
2021/08/05 08:17:57;;;;;;;0.00;0.00;;;34.90;46.90;;;;;;5051128;28;20025;-91
2021/08/05 08:20:23;;;;;;;0.00;0.00;;;34.70;47.00;;;;;;5044595;28;20037;-92
2021/08/05 08:22:49;;;;;;;0.00;0.00;;;34.30;47.30;;;;;;5049083;28;20067;-91
2021/08/05 08:25:16;;;;;;;0.00;0.00;;;34.40;47.50;;;;;;5044561;28;20069;-91
2021/08/05 08:27:43;;;;;;;0.00;0.00;;;34.50;47.60;;;;;;5045523;28;20277;-91
2021/08/05 08:30:11;;;;;;;0.00;0.00;;;34.60;47.90;;;;;;5044658;28;20037;-90
2021/08/05 08:32:37;;;;;;;0.00;0.00;;;34.60;48.10;;;;;;5041694;28;20096;-92
2021/08/05 08:35:05;;;;;;;0.00;0.00;;;34.80;48.30;;;;;;5043669;28;20033;-91
2021/08/05 08:37:31;;;;;;;0.00;0.00;;;35.10;47.40;;;;;;5042470;28;20398;-91
2021/08/05 08:39:57;;;;;;;0.00;0.00;;;35.20;47.20;;;;;;5041686;28;20033;-92
2021/08/05 08:42:23;;;;;;;0.03;0.03;;;35.20;47.30;;;;;;5042734;28;20033;-91
2021/08/05 08:44:49;;;;;;;0.00;0.00;;;34.90;47.40;;;;;;5044547;28;20033;-91
2021/08/05 08:47:17;;;;;;;0.00;0.00;;;35.00;47.60;;;;;;5044228;28;20099;-92
2021/08/05 08:49:43;;;;;;;0.00;0.00;;;34.90;47.50;;;;;;5046291;28;20167;-91
2021/08/05 08:52:11;;;;;;;0.00;0.00;;;34.70;47.40;;;;;;5048998;28;20037;-90
2021/08/05 08:54:44;;;;;;;0.00;0.00;;;34.40;48.00;;;;;;5043335;28;20033;-91
2021/08/05 08:57:14;;;;;;;;;;;34.50;48.40;;;;;;5042101;28;20482;-92
2021/08/05 08:59:41;;;;;;;0.00;0.00;;;34.60;48.70;;;;;;5046609;28;19974;-91
2021/08/05 09:02:07;;;;;;;0.00;0.00;;;34.90;47.70;;;;;;5047041;28;20029;-90
2021/08/05 09:04:35;;;;;;;0.00;0.00;;;35.30;46.90;;;;;;5046723;28;20064;-92
2021/08/05 09:07:01;;;;;;;0.00;0.00;;;35.50;46.40;;;;;;5043694;28;20401;-90
2021/08/05 09:09:27;;;;;;;0.10;0.10;;;35.50;46.30;;;;;;5045214;28;20478;-91
2021/08/05 09:11:53;;;;;;;0.00;0.00;;;35.60;46.10;;;;;;5042751;28;20120;-90
2021/08/05 09:14:41;;;;;;;0.00;0.00;;;35.50;46.30;;;;;;5046419;28;20060;-91
2021/08/05 09:17:17;;;;;;;0.05;0.05;;;35.80;46.20;;;;;;5049729;28;20033;-90
2021/08/05 09:19:44;;;;;;;0.10;0.10;;;36.30;46.10;;;;;;5047579;28;20108;-91
2021/08/05 09:22:10;;;;;;;0.00;0.00;;;36.50;45.60;;;;;;5042461;28;20041;-88
2021/08/05 09:24:35;;;;;;;0.00;0.00;;;36.90;45.70;;;;;;5042269;28;20435;-87
2021/08/05 09:27:06;;;;;;;0.00;0.00;;;37.00;44.10;;;;;;5042189;28;20071;-91
2021/08/05 09:29:43;;;;;;;0.00;0.00;;;36.80;43.80;;;;;;5044385;28;20040;-90
2021/08/05 09:32:09;;;;;;;0.03;0.03;;;36.30;43.90;;;;;;5046520;28;20036;-91
2021/08/05 09:34:39;;;;;;;0.10;0.10;;;36.30;43.80;;;;;;5040619;28;20059;-91
2021/08/05 09:37:08;;;;;;;0.10;0.10;;;36.30;43.80;;;;;;5061181;28;20056;-90
2021/08/05 09:39:40;;;;;;;0.00;0.00;;;36.50;43.60;;;;;;5041518;28;20496;-90
2021/08/05 09:42:12;;;;;;;0.00;0.00;;;36.60;43.20;;;;;;5042758;28;20083;-91
2021/08/05 09:44:38;;;;;;;0.00;0.00;;;36.60;43.00;;;;;;5042661;28;20044;-90
2021/08/05 09:47:06;;;;;;;0.00;0.00;;;36.50;42.50;;;;;;5043945;28;20044;-89
2021/08/05 09:49:35;;;;;;;0.00;0.00;;;36.40;42.50;;;;;;5044771;28;20489;-91
2021/08/05 09:54:48;;;;;;;0.00;0.00;;;35.80;42.90;;;;;;5054104;28;20057;-88
2021/08/05 09:57:24;;;;;;;0.00;0.00;;;35.80;43.40;;;;;;5042384;28;20489;-89
2021/08/05 09:59:55;;;;;;;0.00;0.00;;;35.90;42.80;;;;;;5038125;28;20032;-87
2021/08/05 10:02:22;;;;;;;0.00;0.00;;;35.80;43.10;;;;;;5037731;28;20049;-89
2021/08/05 10:04:48;;;;;;;0.00;0.00;;;35.80;43.50;;;;;;5038269;28;20041;-90
2021/08/05 10:07:31;;;;;;;0.00;0.00;;;35.80;43.50;;;;;;5039153;28;20076;-89
2021/08/05 10:10:09;;;;;;;0.00;0.00;;;35.40;44.00;;;;;;5038148;28;20478;-90
2021/08/05 10:12:45;;;;;;;0.00;0.00;;;35.20;44.00;;;;;;5036430;28;20044;-89
2021/08/05 10:15:13;;;;;;;0.10;0.10;;;35.30;44.40;;;;;;5036116;28;20190;-90
2021/08/05 10:17:51;;;;;;;0.00;0.00;;;36.00;44.40;;;;;;5037909;28;20037;-90
2021/08/05 10:20:17;;;;;;;0.00;0.00;;;36.50;43.10;;;;;;5036907;28;20080;-89
2021/08/05 10:22:43;;;;;;;0.00;0.00;;;36.90;42.50;;;;;;5043174;28;20063;-87
2021/08/05 10:25:15;;;;;;;0.00;0.00;;;37.10;41.70;;;;;;5060521;28;20025;-88
2021/08/05 10:27:45;;;;;;;0.00;0.00;;;37.30;41.90;;;;;;5052435;28;20092;-91
2021/08/05 10:30:16;;;;;;;0.00;0.00;;;37.30;41.30;;;;;;5043846;28;20037;-89
2021/08/05 10:32:47;;;;;;;0.00;0.00;;;37.10;41.20;;;;;;5039711;28;20045;-90
2021/08/05 10:35:13;;;;;;;0.00;0.00;;;36.80;42.20;;;;;;5056576;28;20535;-89
2021/08/05 10:37:44;;;;;;;0.10;0.10;;;36.90;41.80;;;;;;5039014;28;20079;-87
2021/08/05 10:40:11;;;;;;;0.05;0.05;;;37.00;41.20;;;;;;5022997;28;20044;-90
2021/08/05 10:42:55;;;;;;;0.00;0.00;;;37.00;41.50;;;;;;5040300;28;20044;-89
2021/08/05 10:45:55;;;;;;;0.10;0.10;;;36.90;41.20;;;;;;5056612;28;20086;-91
2021/08/05 10:48:34;;;;;;;0.00;0.00;;;36.90;40.40;;;;;;5039945;28;20042;-90
2021/08/05 10:51:11;;;;;;;0.00;0.00;;;36.90;40.40;;;;;;5038243;28;20083;-89
2021/08/05 10:53:43;;;;;;;0.10;0.10;;;37.00;40.80;;;;;;5040324;28;20502;-90
2021/08/05 10:56:19;;;;;;;0.00;0.00;;;36.90;41.30;;;;;;5037436;28;20040;-89
2021/08/05 10:59:04;;;;;;;0.10;0.10;;;37.10;41.00;;;;;;5039097;28;20029;-91
2021/08/05 11:01:58;;;;;;;0.05;0.05;;;37.10;40.30;;;;;;5038305;28;20075;-89
2021/08/05 11:05:03;;;;;;;0.00;0.00;;;37.10;40.20;;;;;;5040672;28;20371;-90
2021/08/05 11:08:07;;;;;;;0.00;0.00;;;37.00;40.20;;;;;;4959746;28;20404;-91
2021/08/05 11:10:39;;;;;;;0.00;0.00;;;37.00;41.20;;;;;;5040370;28;20035;-91
2021/08/05 11:13:23;;;;;;;0.00;0.00;;;37.60;40.90;;;;;;5042994;28;20033;-89
2021/08/05 11:15:55;;;;;;;0.00;0.00;;;37.80;40.00;;;;;;5041728;28;20051;-88
2021/08/05 11:18:34;;;;;;;0.00;0.00;;;37.50;40.60;;;;;;5043656;28;20124;-91
2021/08/05 11:20:59;;;;;;;0.00;0.00;;;37.10;41.20;;;;;;5042006;28;20041;-92
2021/08/05 11:23:38;;;;;;;0.10;0.10;;;37.00;41.60;;;;;;5039757;28;20043;-90
2021/08/05 11:26:33;;;;;;;0.10;0.10;;;37.10;41.80;;;;;;5039711;28;20482;-90
2021/08/05 11:29:29;;;;;;;0.10;0.10;;;37.40;42.10;;;;;;5036584;28;20467;-92
2021/08/05 11:32:24;;;;;;;0.00;0.00;;;38.10;41.70;;;;;;5005784;28;20034;-92
2021/08/05 11:35:22;;;;;;;0.10;0.10;;;38.30;41.60;;;;;;4975377;28;20131;-90
2021/08/05 11:38:26;;;;;;;0.10;0.10;;;38.80;41.80;;;;;;5018042;28;20041;-91
2021/08/05 11:44:18;;;;;;;0.00;0.00;;;38.90;40.70;;;;;;4996103;28;20054;-92
2021/08/05 11:47:10;;;;;;;0.00;0.00;;;38.20;41.20;;;;;;4980762;28;20038;-89
2021/08/05 11:49:56;;;;;;;0.00;0.00;;;37.40;41.60;;;;;;4992726;28;20038;-90
2021/08/05 11:56:22;;;;;;;0.00;0.00;;;35.70;43.20;;;;;;4952391;29;20062;-90
2021/08/05 11:58:48;;;;;;;0.00;0.00;;;35.20;44.50;;;;;;4992451;28;20062;-89
2021/08/05 12:01:31;;;;;;;0.00;0.00;;;35.00;45.00;;;;;;4989542;28;20038;-90
2021/08/05 12:04:03;;;;;;;0.00;0.00;;;34.80;45.40;;;;;;4982667;28;20054;-89
2021/08/05 12:06:38;;;;;;;0.00;0.00;;;34.40;46.20;;;;;;4995488;28;20046;-89
2021/08/05 12:12:14;;;;;;;0.00;0.00;;;34.10;47.10;;;;;;4968734;28;20046;-88
2021/08/05 12:14:59;;;;;;;0.00;0.00;;;34.20;46.50;;;;;;4981875;28;20516;-92
2021/08/05 12:17:48;;;;;;;0.00;0.00;;;34.10;46.50;;;;;;4979904;28;20057;-88
2021/08/05 12:24:02;;;;;;;0.00;0.00;;;33.50;46.90;;;;;;5030016;28;20048;-90
2021/08/05 12:26:57;;;;;;;0.00;0.00;;;33.60;47.10;;;;;;5040566;28;20071;-91
2021/08/05 12:29:32;;;;;;;0.00;0.00;;;34.60;47.00;;;;;;5040470;28;20048;-90
2021/08/05 12:32:27;;;;;;;0.00;0.00;;;35.60;45.30;;;;;;5040071;28;20049;-90
2021/08/05 12:38:42;;;;;;;0.00;0.00;;;36.50;43.40;;;;;;4977729;28;20049;-90
2021/08/05 12:41:29;;;;;;;0.00;0.00;;;36.50;43.40;;;;;;4963216;28;20405;-91
2021/08/05 12:44:28;;;;;;;0.00;0.00;;;36.80;43.10;;;;;;5046411;28;20395;-87
2021/08/05 12:47:22;;;;;;;0.00;0.00;;;37.10;42.70;;;;;;5044319;28;20108;-90
2021/08/05 12:50:17;;;;;;;0.00;0.00;;;37.30;42.60;;;;;;5043119;28;20166;-91
2021/08/05 12:52:43;;;;;;;0.00;0.00;;;37.60;42.80;;;;;;5065282;23;20056;-93
2021/08/05 12:55:09;;;;;;;0.00;0.00;;;37.80;42.60;;;;;;5045054;28;20411;-92
2021/08/05 12:57:40;;;;;;;0.00;0.00;;;37.70;42.70;;;;;;5047889;28;20121;-92
2021/08/05 13:00:25;;;;;;;0.00;0.00;;;37.90;42.70;;;;;;5052640;28;20098;-91
2021/08/05 13:03:01;;;;;;;0.08;0.08;;;38.10;42.40;;;;;;5052748;28;20071;-93
2021/08/05 13:05:27;;;;;;;0.00;0.00;;;38.00;42.90;;;;;;5046561;28;20060;-93
2021/08/05 13:07:53;;;;;;;0.00;0.00;;;38.20;43.10;;;;;;5052838;28;20037;-92
2021/08/05 13:10:25;;;;;;;0.10;0.10;;;38.50;42.60;;;;;;5051322;28;20067;-93
2021/08/05 13:12:54;;;;;;;0.00;0.00;;;38.30;41.80;;;;;;5054260;28;20038;-93
2021/08/05 13:15:33;;;;;;;0.00;0.00;;;38.10;41.00;;;;;;5038700;28;20037;-92
2021/08/05 13:18:02;;;;;;;0.00;0.00;;;38.00;41.10;;;;;;5049068;28;20033;-93
2021/08/05 13:20:31;;;;;;;0.00;0.00;;;38.20;40.90;;;;;;5043425;28;20048;-93
2021/08/05 13:22:58;;;;;;;0.00;0.00;;;38.30;40.90;;;;;;5039251;28;20037;-91
2021/08/05 13:25:38;;;;;;;0.00;0.00;;;38.40;40.50;;;;;;5058215;28;20052;-91
2021/08/05 13:28:11;;;;;;;0.00;0.00;;;38.20;41.00;;;;;;5056480;28;20047;-94
2021/08/05 13:30:39;;;;;;;0.00;0.00;;;38.20;41.90;;;;;;5045311;28;20063;-93
2021/08/05 13:33:26;;;;;;;0.00;0.00;;;37.90;43.20;;;;;;5045581;28;20029;-93
2021/08/05 13:35:54;;;;;;;0.00;0.00;;;38.00;42.40;;;;;;5043541;28;20443;-92
2021/08/05 13:38:20;;;;;;;0.03;0.03;;;37.90;42.50;;;;;;5046400;28;20025;-93
2021/08/05 13:40:46;;;;;;;0.00;0.00;;;38.00;41.90;;;;;;5045116;28;20037;-91